ADDS METAR Data INFO
IDs: Format: Raw Decoded Include TAF

Data at: 1537 UTC 25 Feb 2018

KMQJ 251535Z AUTO 24014G19KT 10SM CLR 04/02 A2999 RMK AO1
KMQJ 251516Z AUTO 25012G20KT 10SM SCT019 SCT024 04/02 A3000 RMK AO1
KMQJ 251455Z AUTO 26015G21KT 10SM BKN019 03/02 A2999 RMK AO1
KMQJ 251435Z AUTO 27013G16KT 10SM SCT019 03/01 A2999 RMK AO1
KMQJ 251415Z AUTO 27014KT 10SM SCT019 02/01 A2998 RMK AO1
KMQJ 251355Z AUTO 26017G21KT 10SM SCT019 02/01 A2998 RMK AO1
KMQJ 251335Z AUTO 26015G23KT 10SM CLR 02/01 A2996 RMK AO1
KMQJ 251315Z AUTO 25007G10KT 10SM SCT021 02/01 A2994 RMK AO1
KMQJ 251255Z AUTO 26016KT 10SM BKN021 03/01 A2993 RMK AO1
KMQJ 251235Z AUTO 24014KT 10SM OVC023 03/02 A2992 RMK AO1
KMQJ 251215Z AUTO 25015KT 10SM OVC023 04/02 A2991 RMK AO1
KMQJ 251155Z AUTO 26017G23KT 10SM OVC021 04/03 A2990 RMK AO1
KMQJ 251135Z AUTO 26019G22KT 10SM BKN021 BKN028 04/03 A2989 RMK AO1
KMQJ 251115Z AUTO 27011KT 10SM BKN025 05/04 A2987 RMK AO1
KMQJ 251055Z AUTO 27015G25KT 10SM BKN025 05/04 A2987 RMK AO1
KMQJ 251035Z AUTO 26015G24KT 10SM OVC023 06/04 A2985 RMK AO1
KMQJ 251015Z AUTO 26019G28KT 10SM BKN023 OVC030 06/05 A2982 RMK AO1
KMQJ 250955Z AUTO 27022G32KT 10SM SCT024 OVC032 06/05 A2980 RMK AO1
KMQJ 250935Z AUTO 27029G35KT 10SM BKN026 BKN032 BKN060 07/05 A2980 RMK AO1
KMQJ 250915Z AUTO 26018G27KT 10SM BKN024 BKN035 BKN055 08/06 A2977 RMK AO1
KMQJ 250855Z AUTO 27022G33KT 10SM BKN021 BKN027 BKN050 08/07 A2974 RMK AO1
KMQJ 250835Z AUTO 27026G36KT 10SM BKN019 OVC024 08/08 A2973 RMK AO1
KMQJ 250815Z AUTO 27025G34KT 10SM BKN015 OVC020 09/09 A2971 RMK AO1
KMQJ 250755Z AUTO 28029G38KT 5SM SCT014 BKN020 OVC029 12/12 A2967 RMK AO1
KMQJ 250735Z AUTO 24017G23KT 10SM SCT009 BKN016 OVC029 13/13 A2964 RMK AO1
KMQJ 250715Z AUTO 21013G22KT 10SM BKN007 OVC014 12/12 A2962 RMK AO1
KMQJ 250656Z AUTO 20012G18KT 3SM BKN007 OVC011 12/12 A2963 RMK AO1
KMQJ 250635Z AUTO 19014G20KT 3SM SCT007 BKN012 OVC021 12/12 A2962 RMK AO1
KMQJ 250615Z AUTO 18016G22KT 4SM SCT014 BKN021 OVC027 13/13 A2963 RMK AO1
KMQJ 250555Z AUTO 20011G15KT 10SM OVC028 13/13 A2962 RMK AO1
KMQJ 250535Z AUTO 18012G17KT 10SM OVC032 12/12 A2960 RMK AO1
KMQJ 250515Z AUTO 17017G28KT 10SM BKN036 12/12 A2960 RMK AO1
KMQJ 250455Z AUTO 18012G21KT 10SM CLR 12/12 A2960 RMK AO1
KMQJ 250435Z AUTO 15015G26KT 10SM SCT004 SCT021 SCT060 12/12 A2958 RMK AO1
KMQJ 250415Z AUTO 13024G32KT 7SM BKN004 BKN018 OVC065 11/11 A2954 RMK AO1
KMQJ 250355Z AUTO 14015G18KT 7SM OVC004 11/11 A2965 RMK AO1
KMQJ 250335Z AUTO 15007G15KT 10SM OVC004 11/11 A2969 RMK AO1
KMQJ 250315Z AUTO 12013G21KT 10SM BKN004 BKN011 OVC028 10/10 A2967 RMK AO1
KMQJ 250255Z AUTO 12015KT 5SM BKN004 BKN009 OVC021 10/10 A2971 RMK AO1
KMQJ 250235Z AUTO 13008KT 4SM BKN006 BKN009 OVC017 10/10 A2977 RMK AO1
KMQJ 250215Z AUTO 14009KT 3SM BKN006 OVC009 10/10 A2978 RMK AO1
KMQJ 250155Z AUTO 13005KT 3SM BKN006 BKN014 OVC020 10/10 A2978 RMK AO1
KMQJ 250135Z AUTO 12008KT 4SM OVC006 10/10 A2979 RMK AO1
KMQJ 250115Z AUTO 12009KT 7SM BKN006 OVC011 10/10 A2980 RMK AO1
KMQJ 250055Z AUTO 12009KT 7SM OVC008 09/09 A2981 RMK AO1
KMQJ 250035Z AUTO 12007KT 7SM OVC008 09/09 A2983 RMK AO1
KMQJ 250015Z AUTO 12007KT 4SM OVC008 09/09 A2984 RMK AO1
KMQJ 242355Z AUTO 11008KT 3SM OVC010 09/09 A2985 RMK AO1
KMQJ 242335Z AUTO 12008KT 10SM OVC010 10/10 A2986 RMK AO1
KMQJ 242315Z AUTO 12009KT 10SM OVC010 10/10 A2986 RMK AO1
KMQJ 242255Z AUTO 11009KT 10SM OVC010 10/10 A2987 RMK AO1
KMQJ 242235Z AUTO 12007KT 10SM OVC010 10/10 A2989 RMK AO1
KMQJ 242215Z AUTO 13009KT 10SM OVC010 10/10 A2990 RMK AO1
KMQJ 242155Z AUTO 12010KT 10SM OVC010 10/10 A2990 RMK AO1
KMQJ 242135Z AUTO 12011KT 10SM OVC010 10/10 A2991 RMK AO1
KMQJ 242115Z AUTO 12010KT 10SM OVC010 10/10 A2992 RMK AO1
KMQJ 242055Z AUTO 13011G15KT 10SM OVC010 09/09 A2993 RMK AO1
KMQJ 242035Z AUTO 12007KT 10SM OVC010 09/09 A2993 RMK AO1
KMQJ 242015Z AUTO 11010KT 10SM OVC010 09/09 A2992 RMK AO1
KMQJ 241955Z AUTO 12012G18KT 10SM OVC010 09/09 A2994 RMK AO1
KMQJ 241935Z AUTO 12012KT 10SM OVC010 09/09 A2994 RMK AO1
KMQJ 241915Z AUTO 11013G16KT 10SM OVC010 09/09 A2996 RMK AO1
KMQJ 241855Z AUTO 11012G15KT 10SM OVC010 09/09 A2997 RMK AO1
KMQJ 241835Z AUTO 10009KT 10SM OVC008 09/09 A2999 RMK AO1
KMQJ 241815Z AUTO 10010KT 10SM OVC008 09/09 A3000 RMK AO1
KMQJ 241755Z AUTO 10012KT 10SM OVC008 08/08 A3001 RMK AO1
KMQJ 241735Z AUTO 08013KT 10SM OVC008 08/08 A3001 RMK AO1
KMQJ 241715Z AUTO 09009KT 10SM BKN008 BKN012 OVC022 07/07 A3004 RMK AO1
KMQJ 241655Z AUTO 10009KT 10SM SCT006 BKN040 OVC060 07/07 A3004 RMK AO1
KMQJ 241635Z AUTO 09009KT 7SM SCT006 BKN027 OVC045 06/06 A3007 RMK AO1
KMQJ 241615Z AUTO 11008G15KT 5SM SCT006 BKN037 OVC045 06/06 A3008 RMK AO1
KMQJ 241555Z AUTO 09010KT 5SM SCT006 BKN023 OVC045 06/06 A3008 RMK AO1
KMQJ 241535Z AUTO 10004KT 5SM SCT006 BKN021 OVC038 06/06 A3011 RMK AO1
KMQJ 241515Z AUTO 09007KT 2 1/2SM SCT008 SCT023 OVC039 06/06 A3012 RMK AO1
KMQJ 241455Z AUTO 09006KT 5SM SCT008 BKN041 OVC048 05/05 A3013 RMK AO1
KMQJ 241435Z AUTO 08005KT 5SM BKN008 BKN018 OVC030 05/05 A3014 RMK AO1
KMQJ 241415Z AUTO 09004KT 7SM BKN008 BKN026 OVC048 05/05 A3014 RMK AO1
KMQJ 241355Z AUTO 08005KT 5SM BKN006 BKN028 OVC033 05/05 A3013 RMK AO1
KMQJ 241335Z AUTO 11005KT 5SM SCT006 BKN028 OVC060 05/05 A3014 RMK AO1
KMQJ 241315Z AUTO 08004KT 5SM SCT033 SCT042 OVC070 05/05 A3013 RMK AO1
KMQJ 241255Z AUTO 08005KT 5SM BKN033 BKN042 OVC070 05/05 A3013 RMK AO1
KMQJ 241235Z AUTO 08004KT 4SM SCT032 BKN050 OVC070 05/05 A3014 RMK AO1
KMQJ 241215Z AUTO 04006KT 3SM SCT005 BKN033 OVC050 05/05 A3013 RMK AO1
KMQJ 241155Z AUTO 01003KT 4SM BKN005 BKN027 OVC033 05/05 A3016 RMK AO1
KMQJ 241135Z AUTO 03007KT 5SM SCT007 BKN016 OVC031 05/05 A3014 RMK AO1
KMQJ 241115Z AUTO 05005KT 5SM BKN005 OVC031 05/05 A3014 RMK AO1
KMQJ 241055Z AUTO 07006KT 5SM OVC005 04/04 A3014 RMK AO1
KMQJ 241035Z AUTO 07007KT 5SM BKN005 OVC029 04/04 A3014 RMK AO1
KMQJ 241015Z AUTO 05006KT 5SM SCT005 BKN029 OVC050 04/04 A3014 RMK AO1
KMQJ 240955Z AUTO 03007KT 5SM BKN005 OVC031 04/04 A3017 RMK AO1
KMQJ 240935Z AUTO 03009KT 7SM OVC005 05/05 A3016 RMK AO1
KMQJ 240915Z AUTO 02007KT 7SM OVC005 05/05 A3017 RMK AO1
KMQJ 240855Z AUTO 01007KT 5SM OVC005 05/05 A3018 RMK AO1
KMQJ 240835Z AUTO 01004KT 4SM OVC005 05/05 A3019 RMK AO1
KMQJ 240815Z AUTO 01008KT 5SM OVC007 05/05 A3019 RMK AO1
KMQJ 240755Z AUTO 03008KT 5SM BKN007 OVC011 05/05 A3019 RMK AO1
KMQJ 240735Z AUTO 03009KT 4SM OVC007 05/05 A3020 RMK AO1
KMQJ 240715Z AUTO 04005KT 5SM OVC007 06/06 A3021 RMK AO1
KMQJ 240655Z AUTO 00000KT 7SM BKN007 OVC011 06/06 A3023 RMK AO1
KMQJ 240635Z AUTO 35009KT 7SM OVC005 06/06 A3021 RMK AO1
KMQJ 240615Z AUTO 33007KT 7SM OVC005 06/06 A3023 RMK AO1
KMQJ 240555Z AUTO 36007KT 7SM OVC005 06/06 A3022 RMK AO1
KMQJ 240535Z AUTO 01005KT 7SM OVC005 06/06 A3021 RMK AO1
KMQJ 240515Z AUTO 36007KT 7SM OVC007 07/07 A3021 RMK AO1
KMQJ 240455Z AUTO 35005KT 10SM OVC007 07/07 A3021 RMK AO1
KMQJ 240435Z AUTO 36004KT 10SM OVC007 07/07 A3021 RMK AO1
KMQJ 240415Z AUTO 36007KT 10SM OVC007 07/07 A3020 RMK AO1
KMQJ 240355Z AUTO 35008KT 7SM BKN007 OVC011 07/07 A3021 RMK AO1